Time;durP1;ratioP1;P1;durP2;ratioP2;P2;SDS_P1;SDS_P2;PMS_P1;PMS_P2;Temp;Humidity;BMP_temperature;BMP_pressure;BME280_temperature;BME280_humidity;BME280_pressure;Samples;Min_cycle;Max_cycle;Signal;HPM_P1;HPM_P2
2023/10/02 00:01:24;;;;;;;7.40;3.45;;;;;;;24.46;35.82;100504.97;4466742;32;33549;-66
2023/10/02 00:04:16;;;;;;;8.15;3.33;;;;;;;24.43;35.81;100501.63;4453628;32;33925;-66
2023/10/02 00:06:40;;;;;;;7.97;3.12;;;;;;;24.45;35.78;100503.28;4468661;32;34077;-64
2023/10/02 00:09:08;;;;;;;7.90;2.95;;;;;;;24.43;35.72;100507.09;4482032;32;33996;-66
2023/10/02 00:11:41;;;;;;;7.53;3.12;;;;;;;24.40;35.77;100498.47;4469282;32;34619;-65
2023/10/02 00:14:19;;;;;;;6.97;2.85;;;;;;;24.40;35.71;100498.47;4483551;32;34566;-66
2023/10/02 00:17:03;;;;;;;5.85;2.85;;;;;;;24.39;35.68;100508.56;4482267;32;32875;-66
2023/10/02 00:19:37;;;;;;;6.30;3.10;;;;;;;24.38;35.81;100506.03;4483177;32;33894;-65
2023/10/02 00:22:43;;;;;;;6.57;3.22;;;;;;;24.35;35.87;100501.00;4481977;32;32686;-66
2023/10/02 00:25:19;;;;;;;7.03;3.10;;;;;;;24.37;35.79;100496.19;4482096;32;33475;-65
2023/10/02 00:27:51;;;;;;;5.50;2.65;;;;;;;24.34;35.76;100493.84;4482159;32;32958;-65
2023/10/02 00:30:21;;;;;;;7.37;3.08;;;;;;;24.33;35.74;100500.34;4481913;32;34415;-66
2023/10/02 00:32:50;;;;;;;6.47;3.17;;;;;;;24.31;35.66;100499.75;4481990;32;34792;-66
2023/10/02 00:35:22;;;;;;;7.95;3.28;;;;;;;24.29;35.70;100489.03;4443464;32;33757;-66
2023/10/02 00:37:51;;;;;;;5.82;2.72;;;;;;;24.29;35.64;100486.31;4469534;32;34092;-66
2023/10/02 00:40:30;;;;;;;7.57;3.35;;;;;;;24.29;35.73;100491.75;4481717;32;32916;-66
2023/10/02 00:43:03;;;;;;;6.55;2.80;;;;;;;24.28;35.81;100489.25;4483299;32;33928;-67
2023/10/02 00:45:38;;;;;;;5.87;2.90;;;;;;;24.27;35.68;100496.59;4483895;32;33833;-66
2023/10/02 00:48:25;;;;;;;5.75;2.78;;;;;;;24.26;35.66;100488.66;4471772;32;33287;-66
2023/10/02 00:50:54;;;;;;;7.07;3.20;;;;;;;24.24;35.62;100491.56;4484095;32;33867;-67
2023/10/02 00:53:37;;;;;;;6.37;3.10;;;;;;;24.23;35.65;100484.44;4483537;32;34681;-66
2023/10/02 00:56:19;;;;;;;5.95;2.60;;;;;;;24.22;35.59;100485.50;4472280;32;33950;-66
2023/10/02 00:58:55;;;;;;;6.15;2.78;;;;;;;24.22;35.59;100493.69;4484037;32;33157;-65
2023/10/02 01:01:26;;;;;;;6.62;2.70;;;;;;;24.21;35.60;100483.00;4483874;32;33883;-64
2023/10/02 01:04:11;;;;;;;8.70;3.10;;;;;;;24.19;35.55;100484.03;4483563;32;33905;-65
2023/10/02 01:10:07;;;;;;;6.12;2.97;;;;;;;24.16;35.62;100481.75;4411611;32;33357;-66
2023/10/02 01:12:43;;;;;;;7.05;3.05;;;;;;;24.16;35.59;100481.75;4444820;32;32931;-66
2023/10/02 01:15:12;;;;;;;8.15;3.17;;;;;;;24.14;35.72;100494.75;4468035;32;33743;-66
2023/10/02 01:17:40;;;;;;;6.12;2.60;;;;;;;24.14;35.64;100483.84;4469128;32;34548;-67
2023/10/02 01:20:42;;;;;;;7.55;2.87;;;;;;;24.12;35.64;100488.69;4455319;32;33868;-66
2023/10/02 01:23:16;;;;;;;7.35;3.28;;;;;;;24.13;35.55;100494.97;4456637;32;33843;-65
2023/10/02 01:25:44;;;;;;;6.78;2.80;;;;;;;24.12;35.47;100501.50;4443614;32;33923;-66
2023/10/02 01:28:20;;;;;;;5.15;2.65;;;;;;;24.10;35.41;100504.41;4468169;32;33618;-65
2023/10/02 01:30:50;;;;;;;6.95;3.05;;;;;;;24.09;35.48;100500.00;4467929;32;33394;-65
2023/10/02 01:33:21;;;;;;;9.63;3.30;;;;;;;24.09;35.47;100500.00;4467863;32;33880;-67
2023/10/02 01:35:58;;;;;;;6.75;2.65;;;;;;;24.06;35.46;100497.75;4455697;32;33996;-65
2023/10/02 01:38:32;;;;;;;6.65;2.60;;;;;;;24.07;35.49;100495.84;4455246;32;33862;-65
2023/10/02 01:41:07;;;;;;;8.07;3.10;;;;;;;24.05;35.51;100498.75;4455361;32;33311;-64
2023/10/02 01:43:38;;;;;;;7.55;2.72;;;;;;;24.04;35.49;100504.44;4455929;32;33960;-66
2023/10/02 01:46:07;;;;;;;8.23;2.60;;;;;;;24.03;35.48;100502.78;4467787;32;34878;-66
2023/10/02 01:48:41;;;;;;;6.80;3.10;;;;;;;24.01;35.48;100500.25;4454866;32;33587;-65
2023/10/02 01:51:41;;;;;;;6.03;2.95;;;;;;;24.00;35.38;100498.56;4455393;32;32311;-65
2023/10/02 01:54:15;;;;;;;8.52;3.17;;;;;;;24.01;35.47;100499.41;4468342;32;33888;-65
2023/10/02 01:56:47;;;;;;;6.10;3.00;;;;;;;23.99;35.32;100505.06;4468942;32;34930;-68
2023/10/02 01:59:19;;;;;;;6.75;2.90;;;;;;;23.99;35.48;100505.06;4468969;32;34639;-68
2023/10/02 02:01:52;;;;;;;8.15;2.62;;;;;;;23.96;35.51;100502.78;4467979;32;33253;-67
2023/10/02 02:04:23;;;;;;;5.28;2.67;;;;;;;23.96;35.42;100499.22;4468132;32;33777;-67
2023/10/02 02:06:56;;;;;;;6.40;2.80;;;;;;;23.95;35.37;100503.81;4471521;32;34939;-66
2023/10/02 02:09:25;;;;;;;7.82;3.17;;;;;;;23.93;35.36;100506.78;4470422;32;33998;-66
2023/10/02 02:12:06;;;;;;;6.53;2.78;;;;;;;23.93;35.39;100492.31;4483280;32;33921;-66
2023/10/02 02:14:41;;;;;;;6.95;2.92;;;;;;;23.93;35.33;100498.59;4460717;32;32568;-67
2023/10/02 02:17:10;;;;;;;5.75;2.58;;;;;;;23.90;35.38;100501.75;4484534;32;34443;-67
2023/10/02 02:19:47;;;;;;;6.97;3.07;;;;;;;23.90;35.45;100500.91;4470325;32;34637;-67
2023/10/02 02:22:23;;;;;;;5.53;2.67;;;;;;;23.89;35.46;100500.06;4471547;32;33331;-67
2023/10/02 02:24:53;;;;;;;6.70;2.75;;;;;;;23.89;35.44;100504.69;4471027;32;34882;-66
2023/10/02 02:27:20;;;;;;;5.53;2.55;;;;;;;23.88;35.43;100497.56;4483407;32;33887;-68
2023/10/02 02:29:54;;;;;;;5.47;2.75;;;;;;;23.88;35.39;100509.31;4470232;32;33695;-68
2023/10/02 02:32:36;;;;;;;6.87;2.65;;;;;;;23.88;35.31;100511.19;4470497;32;33373;-66
2023/10/02 02:35:06;;;;;;;5.87;2.62;;;;;;;23.86;35.28;100507.81;4483255;32;34070;-66
2023/10/02 02:37:34;;;;;;;6.47;2.65;;;;;;;23.84;35.28;100518.94;4470143;32;33893;-66
2023/10/02 02:42:51;;;;;;;7.53;2.92;;;;;;;23.85;35.27;100506.16;4472357;32;34447;-66
2023/10/02 02:45:31;;;;;;;7.47;2.95;;;;;;;23.84;35.27;100507.22;4470516;32;33878;-65
2023/10/02 02:48:07;;;;;;;6.20;2.90;;;;;;;23.82;35.18;100512.84;4459448;32;33133;-66
2023/10/02 02:50:42;;;;;;;5.15;2.50;;;;;;;23.81;35.17;100515.81;4458250;32;32309;-64
2023/10/02 02:53:21;;;;;;;6.85;2.90;;;;;;;23.80;35.29;100511.41;4470228;32;34666;-64
2023/10/02 02:56:18;;;;;;;5.97;3.12;;;;;;;23.79;35.28;100516.03;4459626;32;33943;-66
2023/10/02 02:58:50;;;;;;;5.50;2.55;;;;;;;23.81;35.28;100518.53;4460620;32;34771;-65
2023/10/02 03:01:22;;;;;;;5.78;2.55;;;;;;;23.78;35.21;100521.66;4471083;31;34113;-66
2023/10/02 03:03:51;;;;;;;4.80;2.35;;;;;;;23.76;35.28;100527.34;4482875;32;33316;-64
2023/10/02 03:06:22;;;;;;;6.25;2.70;;;;;;;23.75;35.31;100528.41;4482900;32;33946;-66
2023/10/02 03:08:53;;;;;;;5.47;2.62;;;;;;;23.75;35.30;100527.56;4482866;32;33857;-66
2023/10/02 03:11:22;;;;;;;6.55;2.70;;;;;;;23.73;35.30;100522.28;4470310;32;33513;-66
2023/10/02 03:13:50;;;;;;;8.02;2.90;;;;;;;23.73;35.35;100533.19;4482980;32;34139;-66
2023/10/02 03:16:28;;;;;;;6.65;2.83;;;;;;;23.74;35.41;100524.00;4469940;32;33961;-65
2023/10/02 03:19:03;;;;;;;5.93;2.53;;;;;;;23.72;35.37;100526.06;4483060;32;33923;-64
2023/10/02 03:21:31;;;;;;;4.97;2.20;;;;;;;23.72;35.37;100522.53;4482631;32;33267;-66
2023/10/02 03:24:00;;;;;;;5.80;2.40;;;;;;;23.71;35.38;100531.75;4482905;32;33990;-65
2023/10/02 03:29:05;;;;;;;4.68;2.42;;;;;;;23.70;35.39;100533.62;4482815;32;34741;-65
2023/10/02 03:31:37;;;;;;;6.43;2.67;;;;;;;23.68;35.31;100531.09;4469705;32;33606;-68
2023/10/02 03:34:27;;;;;;;8.05;2.53;;;;;;;23.67;35.48;100537.59;4457525;32;32753;-66
2023/10/02 03:37:08;;;;;;;10.88;2.42;;;;;;;23.67;35.75;100536.78;4461837;32;33825;-68
2023/10/02 03:39:52;;;;;;;8.03;2.90;;;;;;;23.67;35.87;100537.59;4482492;32;34024;-67
2023/10/02 03:42:22;;;;;;;7.70;2.60;;;;;;;23.68;36.07;100536.56;4483925;32;35172;-67
2023/10/02 03:44:54;;;;;;;9.65;2.40;;;;;;;23.68;36.08;100536.56;4482859;32;34320;-66
2023/10/02 03:47:22;;;;;;;7.45;2.65;;;;;;;23.70;36.19;100538.25;4483737;32;33800;-65
2023/10/02 03:49:50;;;;;;;5.97;2.78;;;;;;;23.70;36.32;100532.81;4482706;32;33909;-64
2023/10/02 03:52:18;;;;;;;6.32;2.53;;;;;;;23.73;36.31;100543.25;4469467;32;33881;-66
2023/10/02 03:54:46;;;;;;;5.70;2.60;;;;;;;23.73;36.25;100546.81;4482698;32;33432;-65
2023/10/02 04:00:13;;;;;;;6.37;2.60;;;;;;;23.75;36.28;100536.56;4471537;32;33817;-64
2023/10/02 04:02:43;;;;;;;6.45;2.47;;;;;;;23.76;36.46;100543.69;4459445;32;32899;-65
2023/10/02 04:05:30;;;;;;;6.62;2.58;;;;;;;23.77;36.43;100548.06;4482307;32;33389;-65
2023/10/02 04:08:21;;;;;;;5.03;2.72;;;;;;;23.78;36.64;100551.63;4471215;32;33265;-64
2023/10/02 04:10:55;;;;;;;6.55;2.60;;;;;;;23.79;36.66;100551.44;4461407;32;34763;-64
2023/10/02 04:13:27;;;;;;;5.72;2.37;;;;;;;23.80;36.72;100544.09;4457209;32;32523;-65
2023/10/02 04:16:28;;;;;;;;;;;;;;;23.80;36.90;100546.84;4469895;32;33278;-65
2023/10/02 04:19:02;;;;;;;5.03;2.37;;;;;;;23.90;36.80;100539.06;4483553;32;34691;-65
2023/10/02 04:21:33;;;;;;;4.47;2.12;;;;;;;23.84;36.81;100538.03;4473422;32;33531;-65
2023/10/02 04:24:05;;;;;;;5.95;2.55;;;;;;;23.83;36.92;100530.06;4484158;32;33592;-65
2023/10/02 04:26:33;;;;;;;6.40;2.33;;;;;;;23.83;36.81;100541.81;4484069;32;33708;-65
2023/10/02 04:32:11;;;;;;;4.57;2.22;;;;;;;23.83;36.97;100538.25;4473268;32;34709;-65
2023/10/02 04:34:37;;;;;;;7.30;2.42;;;;;;;23.85;36.97;100547.03;4484343;32;34634;-65
2023/10/02 04:37:19;;;;;;;10.82;2.70;;;;;;;23.86;36.95;100555.00;4484025;32;34222;-64
2023/10/02 04:39:54;;;;;;;6.55;2.85;;;;;;;23.86;37.06;100549.53;4485302;32;33788;-64
2023/10/02 04:42:22;;;;;;;6.25;2.70;;;;;;;23.86;37.11;100555.00;4471381;32;34459;-66
2023/10/02 04:44:56;;;;;;;6.60;2.95;;;;;;;23.89;37.07;100553.75;4458133;32;33696;-65
2023/10/02 04:47:26;;;;;;;8.15;2.65;;;;;;;23.91;37.13;100551.63;4471818;32;33180;-65
2023/10/02 04:52:56;;;;;;;5.05;2.42;;;;;;;23.99;37.04;100547.84;4471912;32;33403;-67
2023/10/02 04:55:41;;;;;;;5.43;2.55;;;;;;;23.92;37.17;100561.47;4483721;32;34057;-66
2023/10/02 04:58:15;;;;;;;6.25;2.67;;;;;;;23.89;37.29;100560.03;4472863;32;34180;-65
2023/10/02 05:03:49;;;;;;;12.13;2.60;;;;;;;23.91;37.41;100568.00;4462537;32;34384;-68
2023/10/02 05:06:39;;;;;;;7.30;2.95;;;;;;;23.93;37.38;100584.97;4485019;32;33647;-65
2023/10/02 05:09:19;;;;;;;6.82;2.22;;;;;;;23.90;37.38;100588.97;4472627;32;33399;-65
2023/10/02 05:12:03;;;;;;;9.45;3.10;;;;;;;23.93;37.39;100590.44;4483606;32;33967;-65
2023/10/02 05:14:48;;;;;;;5.03;2.35;;;;;;;23.92;37.43;100595.06;4472610;32;33612;-64
2023/10/02 05:20:07;;;;;;;7.55;2.58;;;;;;;23.94;37.49;100592.09;4483536;32;32682;-63
2023/10/02 05:22:38;;;;;;;6.22;2.40;;;;;;;23.96;37.57;100597.34;4483499;32;32875;-64
2023/10/02 05:25:07;;;;;;;6.97;2.70;;;;;;;23.96;37.61;100598.16;4484966;32;33889;-63
2023/10/02 05:27:36;;;;;;;13.15;2.80;;;;;;;23.97;37.61;100599.87;4483627;32;33810;-63
2023/10/02 05:30:14;;;;;;;5.10;2.40;;;;;;;23.98;37.63;100593.37;4470283;32;32349;-63
2023/10/02 05:32:41;;;;;;;6.85;2.47;;;;;;;23.99;37.66;100605.94;4458296;32;33008;-64
2023/10/02 05:37:45;;;;;;;6.12;2.70;;;;;;;24.01;37.63;100603.81;4483588;32;34872;-70
2023/10/02 05:42:53;;;;;;;7.03;2.80;;;;;;;24.03;37.72;100606.37;4470165;32;33805;-69
2023/10/02 05:50:57;;;;;;;5.20;2.62;;;;;;;24.08;37.73;100615.56;4484849;32;34189;-70
2023/10/02 05:53:26;;;;;;;6.50;2.80;;;;;;;24.06;37.69;100617.69;4470688;32;33850;-68
2023/10/02 05:55:57;;;;;;;5.22;2.70;;;;;;;24.05;37.69;100617.88;4484709;32;34786;-64
2023/10/02 05:58:31;;;;;;;7.07;3.08;;;;;;;24.06;37.65;100620.41;4481625;31;34540;-64
2023/10/02 06:01:12;;;;;;;6.05;2.92;;;;;;;24.05;37.66;100624.16;4480280;32;32928;-65
2023/10/02 06:03:41;;;;;;;8.77;2.33;;;;;;;24.06;37.72;100616.81;4458206;32;34574;-64
2023/10/02 06:06:17;;;;;;;7.53;2.35;;;;;;;24.07;37.66;100619.38;4470611;32;33975;-65
2023/10/02 06:08:49;;;;;;;6.37;3.00;;;;;;;24.07;37.67;100624.81;4459183;32;32832;-67
2023/10/02 06:11:26;;;;;;;6.05;2.90;;;;;;;24.07;37.68;100627.53;4475054;32;32330;-70
2023/10/02 06:14:09;;;;;;;8.43;2.87;;;;;;;24.07;37.68;100630.25;4483385;32;34395;-71
2023/10/02 06:16:58;;;;;;;15.05;3.72;;;;;;;24.08;37.73;100637.37;4483544;32;34309;-71
2023/10/02 06:19:26;;;;;;;12.02;3.33;;;;;;;24.09;37.89;100649.12;4467748;32;32782;-71
2023/10/02 06:24:30;;;;;;;10.70;3.75;;;;;;;24.10;37.91;100657.09;4468779;32;33591;-71
2023/10/02 06:26:58;;;;;;;7.70;2.92;;;;;;;24.13;37.91;100655.84;4467510;32;34048;-70
2023/10/02 06:29:32;;;;;;;13.30;3.15;;;;;;;24.12;37.91;100663.19;4467460;32;34817;-71
2023/10/02 06:32:03;;;;;;;8.88;3.00;;;;;;;24.12;37.94;100663.19;4482499;32;33666;-71
2023/10/02 06:34:37;;;;;;;9.00;3.20;;;;;;;24.12;37.91;100649.56;4484492;32;33570;-70
2023/10/02 06:37:11;;;;;;;6.53;2.60;;;;;;;24.12;37.94;100659.62;4482957;32;34000;-71
2023/10/02 06:39:46;;;;;;;8.32;2.95;;;;;;;24.11;37.98;100661.53;4481705;32;34403;-71
2023/10/02 06:42:19;;;;;;;7.43;3.12;;;;;;;24.11;38.00;100661.53;4482945;32;33075;-71
2023/10/02 06:44:52;;;;;;;7.05;2.78;;;;;;;24.11;38.01;100657.97;4482411;32;33491;-70
2023/10/02 06:47:22;;;;;;;11.00;2.87;;;;;;;24.13;38.01;100647.66;4483858;32;34265;-72
2023/10/02 06:49:51;;;;;;;10.38;2.85;;;;;;;24.12;38.01;100648.72;4483762;32;34845;-71
2023/10/02 06:52:19;;;;;;;6.60;2.58;;;;;;;24.14;38.01;100650.16;4469414;32;34181;-67
2023/10/02 06:54:56;;;;;;;8.85;2.90;;;;;;;24.16;38.02;100652.72;4484157;32;33671;-71
2023/10/02 06:57:24;;;;;;;7.75;2.70;;;;;;;24.16;38.04;100656.28;4471002;32;34043;-71
2023/10/02 06:59:53;;;;;;;7.87;3.00;;;;;;;24.18;38.04;100656.88;4484111;32;34781;-68
2023/10/02 07:02:24;;;;;;;8.35;2.83;;;;;;;24.17;38.18;100659.81;4482830;32;33597;-67
2023/10/02 07:04:56;;;;;;;7.37;2.90;;;;;;;24.18;38.20;100658.78;4482719;32;33833;-68
2023/10/02 07:07:26;;;;;;;7.35;2.80;;;;;;;24.17;38.29;100657.94;4482731;32;34689;-68
2023/10/02 07:09:55;;;;;;;6.18;2.70;;;;;;;24.17;38.28;100657.94;4482842;32;34239;-67
2023/10/02 07:12:27;;;;;;;9.50;3.00;;;;;;;24.19;38.29;100655.81;4482971;32;33701;-66
2023/10/02 07:15:10;;;;;;;6.85;3.12;;;;;;;24.20;38.31;100653.94;4483157;32;34000;-68
2023/10/02 07:17:48;;;;;;;8.15;3.30;;;;;;;24.21;38.31;100654.81;4484104;32;33628;-69
2023/10/02 07:20:20;;;;;;;8.15;2.72;;;;;;;24.21;38.31;100665.72;4482875;32;33822;-69
2023/10/02 07:22:48;;;;;;;8.60;2.85;;;;;;;24.21;38.29;100662.97;4470024;32;34296;-70
2023/10/02 07:25:20;;;;;;;11.25;2.92;;;;;;;24.21;38.35;100660.25;4482656;32;33853;-66
2023/10/02 07:27:48;;;;;;;7.65;2.83;;;;;;;24.22;38.34;100659.19;4470385;32;34054;-69
2023/10/02 07:30:26;;;;;;;7.43;3.33;;;;;;;24.21;38.32;100655.62;4482803;32;33666;-67
2023/10/02 07:33:03;;;;;;;6.67;2.73;;;;;;;24.22;38.34;100668.22;4482816;32;33134;-68
2023/10/02 07:35:33;;;;;;;10.57;3.08;;;;;;;24.25;38.28;100661.47;4482692;32;34274;-67
2023/10/02 07:38:02;;;;;;;8.23;2.85;;;;;;;24.22;38.38;100664.66;4469839;32;33768;-69
2023/10/02 07:40:46;;;;;;;8.85;3.05;;;;;;;24.21;38.38;100660.25;4483623;32;34587;-70
2023/10/02 07:43:18;;;;;;;7.03;2.62;;;;;;;24.21;38.43;100657.53;4482753;32;33484;-69
2023/10/02 07:46:01;;;;;;;11.88;2.90;;;;;;;24.19;38.47;100664.00;4483572;32;34785;-67
2023/10/02 07:48:36;;;;;;;6.93;2.72;;;;;;;24.20;38.49;100664.84;4471034;32;33928;-69
2023/10/02 07:51:06;;;;;;;9.60;2.83;;;;;;;24.21;38.48;100677.44;4482272;32;34652;-68
2023/10/02 07:53:43;;;;;;;5.80;2.67;;;;;;;24.19;38.54;100674.06;4481775;32;33740;-69
2023/10/02 07:56:16;;;;;;;7.40;2.67;;;;;;;24.21;38.54;100677.44;4471307;32;34055;-69
2023/10/02 07:58:54;;;;;;;;;;;;;;;24.21;38.54;100682.06;4456679;32;33126;-72
2023/10/02 08:01:27;;;;;;;7.53;2.45;;;;;;;24.29;38.43;100682.66;4467054;32;33592;-72
2023/10/02 08:03:55;;;;;;;6.25;2.55;;;;;;;24.23;38.49;100686.25;4467414;32;33171;-70
2023/10/02 08:06:33;;;;;;;11.85;3.05;;;;;;;24.21;38.60;100682.91;4480566;32;34808;-71
2023/10/02 08:11:53;;;;;;;9.25;3.15;;;;;;;24.21;38.63;100679.34;4480256;32;33889;-71
2023/10/02 08:17:27;;;;;;;9.00;2.95;;;;;;;24.19;38.69;100685.81;4469022;32;33859;-72
2023/10/02 08:19:56;;;;;;;6.43;2.70;;;;;;;24.19;38.69;100683.09;4468023;32;34233;-72
2023/10/02 08:22:44;;;;;;;7.90;2.78;;;;;;;24.21;38.70;100687.53;4468637;32;33632;-71
2023/10/02 08:25:16;;;;;;;10.93;3.28;;;;;;;24.20;38.73;100681.22;4460484;32;33350;-71
2023/10/02 08:27:44;;;;;;;10.90;3.55;;;;;;;24.21;38.75;100685.63;4467633;32;33418;-70
2023/10/02 08:30:28;;;;;;;7.62;3.28;;;;;;;24.21;38.79;100679.34;4467284;32;33900;-71
2023/10/02 08:33:09;;;;;;;8.07;2.78;;;;;;;24.21;38.80;100679.34;4477569;32;34145;-71
2023/10/02 08:35:58;;;;;;;11.95;3.33;;;;;;;24.22;38.82;100678.28;4465982;32;34140;-72
2023/10/02 08:38:26;;;;;;;7.90;3.20;;;;;;;24.22;38.76;100670.09;4466069;32;33946;-71
2023/10/02 08:40:58;;;;;;;7.05;3.28;;;;;;;24.22;38.80;100681.00;4474158;32;33467;-71
2023/10/02 08:43:27;;;;;;;7.47;2.72;;;;;;;24.22;38.82;100678.28;4463341;32;34865;-71
2023/10/02 08:45:55;;;;;;;6.15;2.83;;;;;;;24.22;38.80;100664.66;4472690;32;33206;-71
2023/10/02 08:48:25;;;;;;;11.15;3.20;;;;;;;24.21;38.82;100673.88;4481040;32;34658;-71
2023/10/02 08:50:57;;;;;;;9.50;3.62;;;;;;;24.23;38.88;100669.88;4481682;32;33920;-72
2023/10/02 08:53:26;;;;;;;8.48;3.17;;;;;;;24.24;38.83;100673.44;4468110;32;33566;-71
2023/10/02 08:56:00;;;;;;;7.82;3.50;;;;;;;24.24;38.80;100673.44;4480444;32;33284;-72
2023/10/02 08:58:29;;;;;;;6.78;2.97;;;;;;;24.26;38.79;100674.09;4482660;32;34340;-72
2023/10/02 09:03:43;;;;;;;;;;;;;;;24.26;38.80;100674.09;4472350;32;34619;-73
2023/10/02 09:06:27;;;;;;;9.77;2.95;;;;;;;24.34;38.62;100672.00;4471428;32;31756;-72
2023/10/02 09:11:44;;;;;;;8.23;2.85;;;;;;;24.24;38.83;100674.28;4446760;32;33228;-71
2023/10/02 09:19:49;;;;;;;8.85;3.85;;;;;;;24.25;38.85;100666.94;4467980;32;33216;-73
2023/10/02 09:22:18;;;;;;;7.72;2.83;;;;;;;24.24;38.84;100666.09;4469965;32;33575;-73
2023/10/02 09:24:58;;;;;;;7.55;3.20;;;;;;;24.25;38.79;100662.34;4471133;32;33655;-72
2023/10/02 09:27:41;;;;;;;6.22;2.65;;;;;;;24.26;38.87;100655.00;4483453;31;33164;-73
2023/10/02 09:30:16;;;;;;;7.55;2.90;;;;;;;24.27;38.86;100660.25;4468672;32;34412;-73
2023/10/02 09:32:47;;;;;;;8.77;3.67;;;;;;;24.27;38.83;100651.22;4469209;32;33414;-73
2023/10/02 09:35:42;;;;;;;7.75;3.05;;;;;;;24.26;38.89;100647.66;4474410;32;33597;-71
2023/10/02 09:38:32;;;;;;;10.80;3.70;;;;;;;24.28;38.82;100650.16;4459794;32;33524;-72
2023/10/02 09:43:35;;;;;;;7.93;2.72;;;;;;;24.29;38.74;100651.84;4468489;32;34661;-72
2023/10/02 09:46:15;;;;;;;7.45;2.92;;;;;;;24.28;38.81;100651.00;4467889;32;34379;-72
2023/10/02 09:51:25;;;;;;;6.60;2.75;;;;;;;24.30;38.84;100650.81;4454688;32;33456;-73
2023/10/02 09:54:04;;;;;;;5.97;2.60;;;;;;;24.31;38.81;100656.03;4469575;32;35035;-72
2023/10/02 09:57:04;;;;;;;6.93;2.80;;;;;;;24.31;38.84;100649.75;4483225;32;33614;-71
2023/10/02 09:59:48;;;;;;;9.75;3.30;;;;;;;24.32;38.79;100644.06;4479274;31;33992;-71
2023/10/02 10:05:00;;;;;;;8.35;3.55;;;;;;;24.32;38.63;100643.22;4467898;32;33909;-71
2023/10/02 10:08:18;;;;;;;8.93;3.33;;;;;;;24.33;38.58;100644.91;4470432;32;33023;-72
2023/10/02 10:11:10;;;;;;;9.43;3.05;;;;;;;24.34;38.59;100641.13;4466670;32;32458;-73
2023/10/02 10:13:46;;;;;;;9.48;3.67;;;;;;;24.31;38.62;100639.69;4467042;32;34812;-71
2023/10/02 10:16:20;;;;;;;11.18;3.50;;;;;;;24.32;38.67;100645.97;4477649;32;33856;-73
2023/10/02 10:21:56;;;;;;;8.20;2.87;;;;;;;24.34;38.71;100642.00;4468712;32;33005;-73
2023/10/02 10:24:51;;;;;;;9.73;3.47;;;;;;;24.33;38.81;100642.19;4466578;32;33973;-73
2023/10/02 10:27:37;;;;;;;6.97;3.28;;;;;;;24.34;38.74;100636.53;4467742;32;33834;-73
2023/10/02 10:30:33;;;;;;;7.25;3.20;;;;;;;24.37;38.77;100638.00;4472180;32;32896;-74
2023/10/02 10:35:41;;;;;;;9.55;3.25;;;;;;;24.35;38.83;100631.91;4471516;32;33982;-72
2023/10/02 10:41:14;;;;;;;9.07;3.33;;;;;;;24.37;38.89;100629.84;4466771;32;33838;-72
2023/10/02 10:46:29;;;;;;;7.57;2.80;;;;;;;24.36;38.99;100629.00;4448572;32;32759;-73
2023/10/02 10:49:15;;;;;;;7.97;3.47;;;;;;;24.39;39.02;100614.09;4467094;32;33865;-72
2023/10/02 10:51:44;;;;;;;8.32;3.40;;;;;;;24.39;39.05;100614.09;4481958;31;33350;-72
2023/10/02 10:54:14;;;;;;;7.53;2.85;;;;;;;24.39;39.12;100614.94;4481952;32;33382;-73
2023/10/02 11:00:25;;;;;;;6.65;3.20;;;;;;;24.46;38.97;100609.47;4457085;32;33877;-72
2023/10/02 11:03:15;;;;;;;9.73;3.10;;;;;;;24.49;39.00;100592.66;4480434;32;33544;-72
2023/10/02 11:05:44;;;;;;;7.30;2.95;;;;;;;24.50;38.98;100594.34;4456114;32;34086;-72
2023/10/02 11:08:24;;;;;;;7.55;3.28;;;;;;;24.50;38.99;100588.88;4472730;32;33882;-72
2023/10/02 11:11:04;;;;;;;7.20;3.33;;;;;;;24.50;39.02;100588.03;4465777;32;33952;-72
2023/10/02 11:13:50;;;;;;;8.55;3.42;;;;;;;24.53;38.86;100591.19;4485652;31;33699;-72
2023/10/02 11:16:30;;;;;;;10.48;3.45;;;;;;;24.53;38.97;100587.59;4482505;32;31812;-72
2023/10/02 11:19:21;;;;;;;5.97;2.72;;;;;;;24.53;38.99;100583.00;4475376;32;33961;-73
2023/10/02 11:22:22;;;;;;;7.32;3.10;;;;;;;24.55;38.94;100583.63;4482200;32;34866;-71
2023/10/02 11:24:52;;;;;;;7.07;3.12;;;;;;;24.55;38.89;100578.16;4482638;32;34252;-73
2023/10/02 11:27:21;;;;;;;8.90;2.72;;;;;;;24.53;38.89;100580.28;4481224;32;33500;-73
2023/10/02 11:30:03;;;;;;;8.25;3.08;;;;;;;24.56;38.89;100571.66;4469752;32;33205;-71
2023/10/02 11:32:54;;;;;;;8.38;3.20;;;;;;;24.56;38.96;100576.25;4479235;32;34570;-72
2023/10/02 11:35:29;;;;;;;10.25;3.22;;;;;;;24.56;39.05;100576.25;4482367;32;33636;-71
2023/10/02 11:37:58;;;;;;;9.85;3.25;;;;;;;24.53;39.08;100577.56;4482767;32;34191;-72
2023/10/02 11:40:28;;;;;;;8.23;3.15;;;;;;;24.50;39.09;100572.50;4465796;32;34326;-71
2023/10/02 11:42:59;;;;;;;9.50;3.35;;;;;;;24.51;39.03;100571.44;4473560;32;33905;-73
2023/10/02 11:45:29;;;;;;;7.53;3.30;;;;;;;24.52;38.88;100573.13;4466489;32;33814;-72
2023/10/02 11:47:56;;;;;;;9.63;3.55;;;;;;;24.52;38.75;100573.13;4440995;32;33472;-72
2023/10/02 11:50:24;;;;;;;7.60;3.05;;;;;;;24.53;38.69;100569.37;4441269;32;32807;-72
2023/10/02 11:52:52;;;;;;;9.00;3.30;;;;;;;24.53;38.76;100560.31;4441252;32;33553;-68
2023/10/02 11:55:20;;;;;;;7.28;3.40;;;;;;;24.53;38.97;100557.59;4479942;32;34575;-71
2023/10/02 11:57:51;;;;;;;7.37;3.53;;;;;;;24.53;38.92;100552.13;4482336;32;32408;-71
2023/10/02 12:00:20;;;;;;;8.52;3.78;;;;;;;24.54;38.84;100551.09;4469503;32;34004;-72
2023/10/02 12:02:49;;;;;;;8.73;3.65;;;;;;;24.55;38.84;100541.84;4456778;32;32779;-72
2023/10/02 12:05:18;;;;;;;9.68;3.53;;;;;;;24.56;38.82;100546.25;4469495;32;32963;-72
2023/10/02 12:07:46;;;;;;;8.10;3.60;;;;;;;24.55;38.83;100539.97;4456609;32;34235;-73
2023/10/02 12:10:15;;;;;;;9.23;3.40;;;;;;;24.55;38.84;100542.69;4483431;32;34610;-73
2023/10/02 12:13:03;;;;;;;6.28;3.20;;;;;;;24.56;38.83;100536.19;4471391;32;34786;-73
2023/10/02 12:16:11;;;;;;;7.93;3.72;;;;;;;24.57;38.79;100539.75;4456604;32;34349;-73
2023/10/02 12:18:59;;;;;;;9.95;3.58;;;;;;;24.57;38.76;100535.13;4482385;32;33945;-72
2023/10/02 12:21:47;;;;;;;12.57;3.83;;;;;;;24.57;38.74;100537.84;4484264;31;32591;-72
2023/10/02 12:24:35;;;;;;;7.43;3.37;;;;;;;24.56;38.76;100536.19;4471037;32;33782;-72
2023/10/02 12:27:24;;;;;;;6.68;2.97;;;;;;;24.55;38.78;100530.94;4482408;32;33517;-72
2023/10/02 12:30:12;;;;;;;7.93;3.17;;;;;;;24.54;38.80;100530.09;4477784;32;33867;-72
2023/10/02 12:33:20;;;;;;;6.53;3.10;;;;;;;24.53;38.85;100533.91;4451738;32;32865;-73
2023/10/02 12:36:17;;;;;;;8.60;3.15;;;;;;;24.54;38.85;100529.28;4460569;32;33766;-72
2023/10/02 12:39:28;;;;;;;7.12;3.12;;;;;;;24.54;38.85;100523.81;4469850;32;33729;-72
2023/10/02 12:41:57;;;;;;;8.07;3.25;;;;;;;24.54;38.84;100521.09;4467377;32;33276;-73
2023/10/02 12:44:48;;;;;;;7.37;3.10;;;;;;;24.50;38.89;100515.22;4468280;32;33887;-73
2023/10/02 12:47:40;;;;;;;8.10;3.22;;;;;;;24.52;38.89;100509.53;4468018;32;33805;-72
2023/10/02 12:50:48;;;;;;;8.32;3.12;;;;;;;24.52;38.89;100518.56;4464950;32;34575;-73
2023/10/02 12:53:36;;;;;;;7.15;3.20;;;;;;;24.55;38.84;100507.22;4483936;32;34020;-72
2023/10/02 12:56:25;;;;;;;10.07;3.08;;;;;;;24.56;38.83;100502.59;4483986;32;34688;-72
2023/10/02 12:59:14;;;;;;;6.80;3.15;;;;;;;24.58;38.79;100497.78;4462393;32;32595;-72
2023/10/02 13:02:02;;;;;;;7.93;2.85;;;;;;;24.58;38.80;100493.16;4473420;32;33590;-71
2023/10/02 13:04:50;;;;;;;5.65;2.90;;;;;;;24.58;38.80;100490.44;4472783;32;33800;-72
2023/10/02 13:07:38;;;;;;;7.07;3.22;;;;;;;24.58;38.79;100486.88;4482383;32;34157;-71
2023/10/02 13:10:26;;;;;;;6.32;2.83;;;;;;;24.59;38.81;100494.00;4461988;32;33197;-71
2023/10/02 13:12:54;;;;;;;7.35;3.10;;;;;;;24.56;38.85;100484.34;4470611;32;33210;-71
2023/10/02 13:15:41;;;;;;;9.38;3.80;;;;;;;24.54;38.92;100483.72;4465224;32;32868;-71
2023/10/02 13:18:46;;;;;;;6.57;2.83;;;;;;;24.54;38.91;100480.16;4461666;32;32339;-71
2023/10/02 13:21:18;;;;;;;7.05;2.97;;;;;;;24.53;38.95;100473.88;4458137;32;33544;-71
2023/10/02 13:23:46;;;;;;;4.90;2.60;;;;;;;24.52;38.99;100485.81;4480632;32;33816;-72